Time;durP1;ratioP1;P1;durP2;ratioP2;P2;SDS_P1;SDS_P2;PMS_P1;PMS_P2;Temp;Humidity;BMP_temperature;BMP_pressure;BME280_temperature;BME280_humidity;BME280_pressure;Samples;Min_cycle;Max_cycle;Signal;HPM_P1;HPM_P2
2023/10/29 00:01:32;;;;;;;1.48;0.70;;;;;;;-145.69;41.18;52103.78;5075819;28;20199;-80
2023/10/29 00:03:58;;;;;;;1.38;0.80;;;;;;;-145.69;41.21;52123.56;5075686;28;20230;-80
2023/10/29 00:06:25;;;;;;;3.45;1.02;;;;;;;-145.69;41.16;52103.78;5085119;28;20286;-81
2023/10/29 00:08:53;;;;;;;2.97;0.90;;;;;;;-145.69;41.07;52133.47;5085482;28;20202;-81
2023/10/29 00:11:19;;;;;;;3.45;0.75;;;;;;;-145.69;41.28;52111.69;5075648;28;20191;-81
2023/10/29 00:13:46;;;;;;;1.60;0.68;;;;;;;-145.69;41.03;52101.78;5075882;28;20290;-80
2023/10/29 00:16:13;;;;;;;3.78;1.13;;;;;;;-145.69;40.88;52119.63;5075386;28;20205;-81
2023/10/29 00:18:39;;;;;;;2.63;1.30;;;;;;;-145.69;40.41;52115.66;5076147;28;20202;-81
2023/10/29 00:21:06;;;;;;;0.88;0.68;;;;;;;-145.69;39.76;52111.69;5075700;28;20199;-81
2023/10/29 00:23:32;;;;;;;1.58;0.60;;;;;;;-145.69;39.34;52119.63;5075916;28;20229;-80
2023/10/29 00:26:00;;;;;;;1.10;0.60;;;;;;;-145.69;39.25;52109.72;5076010;28;20218;-80
2023/10/29 00:28:27;;;;;;;3.55;0.80;;;;;;;-145.69;38.66;52131.50;5075688;28;20198;-81
2023/10/29 00:30:55;;;;;;;3.90;0.73;;;;;;;-145.69;38.42;52111.69;5075552;28;20271;-82
2023/10/29 00:33:21;;;;;;;1.75;0.70;;;;;;;-145.69;39.17;52135.47;5075888;28;20205;-82
2023/10/29 00:35:48;;;;;;;1.35;0.60;;;;;;;-145.69;38.31;52115.66;5088585;28;20225;-81
2023/10/29 00:38:14;;;;;;;1.40;0.60;;;;;;;-145.69;38.86;52113.66;5096386;28;20676;-81
2023/10/29 00:40:41;;;;;;;1.30;0.82;;;;;;;-145.69;39.43;52093.88;5095708;28;20204;-81
2023/10/29 00:43:13;;;;;;;1.27;0.68;;;;;;;-145.69;39.50;52099.81;5095278;28;20712;-81
2023/10/29 00:45:40;;;;;;;2.25;0.70;;;;;;;-145.69;40.16;52113.66;5095688;28;20202;-81
2023/10/29 00:48:08;;;;;;;2.25;0.77;;;;;;;-145.69;39.78;52141.41;5095549;28;20201;-81
2023/10/29 00:50:34;;;;;;;1.85;0.60;;;;;;;-145.69;40.77;52080.00;5095237;28;20197;-82
2023/10/29 00:53:00;;;;;;;8.88;0.80;;;;;;;-145.69;41.95;52131.50;5095248;28;20202;-82
2023/10/29 00:55:27;;;;;;;2.72;0.73;;;;;;;-145.69;42.37;52099.81;5095593;28;20202;-81
2023/10/29 00:57:54;;;;;;;3.33;1.00;;;;;;;-145.69;42.78;52143.38;5095141;28;20228;-81
2023/10/29 01:00:23;;;;;;;1.77;0.80;;;;;;;-145.69;43.69;52149.31;5095256;28;20204;-81
2023/10/29 01:02:49;;;;;;;2.28;0.88;;;;;;;-145.69;44.70;52121.59;5094873;28;20661;-80
2023/10/29 01:05:16;;;;;;;2.33;0.88;;;;;;;-145.69;44.93;52121.59;5093515;28;20228;-81
2023/10/29 01:07:42;;;;;;;2.15;0.88;;;;;;;-145.69;45.55;52147.34;5077206;28;20199;-81
2023/10/29 01:10:10;;;;;;;3.05;0.88;;;;;;;-145.69;46.10;52147.34;5078986;28;20198;-81
2023/10/29 01:12:37;;;;;;;2.28;0.80;;;;;;;-145.69;45.84;52143.38;5074915;28;20204;-81
2023/10/29 01:15:04;;;;;;;2.63;0.98;;;;;;;-145.69;45.00;52127.53;5093401;28;20669;-81
2023/10/29 01:17:32;;;;;;;1.92;0.70;;;;;;;-145.69;45.29;52155.25;5075057;28;20222;-81
2023/10/29 01:19:58;;;;;;;1.38;0.75;;;;;;;-145.69;45.24;52151.28;5054230;28;20341;-81
2023/10/29 01:22:25;;;;;;;2.25;0.77;;;;;;;-145.69;45.36;52147.34;5054427;28;20554;-81
2023/10/29 01:24:51;;;;;;;3.10;0.75;;;;;;;-145.69;45.53;52163.19;5054501;28;20241;-81
2023/10/29 01:27:18;;;;;;;2.00;0.70;;;;;;;-145.69;45.52;52149.31;5054839;28;20200;-81
2023/10/29 01:29:44;;;;;;;2.83;0.90;;;;;;;-145.69;45.51;52143.38;5054456;28;20199;-80
2023/10/29 01:32:11;;;;;;;1.92;0.90;;;;;;;-145.69;47.28;52167.13;5054559;28;20298;-81
2023/10/29 01:34:38;;;;;;;1.77;1.00;;;;;;;-145.69;47.61;52141.41;5054688;28;20199;-79
2023/10/29 01:37:05;;;;;;;5.63;0.70;;;;;;;-145.69;48.37;52153.28;5054272;28;20211;-80
2023/10/29 01:39:31;;;;;;;1.03;0.77;;;;;;;-145.69;48.19;52194.88;5070416;28;20224;-81
2023/10/29 01:41:58;;;;;;;1.13;0.80;;;;;;;-145.69;47.65;52163.19;5088812;28;20198;-80
2023/10/29 01:44:24;;;;;;;4.43;1.20;;;;;;;-145.69;47.25;52179.03;5081830;28;20227;-81
2023/10/29 01:46:51;;;;;;;2.53;0.87;;;;;;;-145.69;46.26;52173.09;5073802;28;20562;-81
2023/10/29 01:49:17;;;;;;;2.83;0.93;;;;;;;-145.69;45.16;52175.06;5073926;28;20582;-81
2023/10/29 01:51:45;;;;;;;0.97;0.60;;;;;;;-145.69;45.39;52157.25;5073828;28;20555;-81
2023/10/29 01:54:11;;;;;;;0.87;0.70;;;;;;;-145.69;43.17;52171.09;5073802;28;20206;-80
2023/10/29 01:56:39;;;;;;;0.83;0.80;;;;;;;-145.69;42.80;52147.34;5073894;28;20205;-80
2023/10/29 01:59:05;;;;;;;1.17;0.67;;;;;;;-145.69;41.90;52155.25;5073970;28;20198;-80
2023/10/29 02:01:31;;;;;;;1.80;0.82;;;;;;;-145.69;41.60;52173.09;5073520;28;20210;-81
2023/10/29 02:03:58;;;;;;;2.67;0.52;;;;;;;-145.69;40.63;52151.28;5073554;28;20233;-80
2023/10/29 02:06:24;;;;;;;0.90;0.60;;;;;;;-145.69;40.24;52151.28;5073743;28;20210;-81
2023/10/29 02:08:52;;;;;;;2.53;0.63;;;;;;;-145.69;40.11;52153.28;5073915;28;20199;-81
2023/10/29 02:11:18;;;;;;;0.60;0.60;;;;;;;-145.69;39.85;52119.63;5053991;28;20202;-81
2023/10/29 02:13:45;;;;;;;1.30;0.70;;;;;;;-145.69;40.04;52133.47;5053900;28;20210;-81
2023/10/29 02:16:11;;;;;;;1.95;0.70;;;;;;;-145.69;39.73;52157.25;5054161;28;20210;-81
2023/10/29 02:18:38;;;;;;;0.85;0.57;;;;;;;-145.69;40.03;52131.50;5074648;28;20225;-80
2023/10/29 02:21:04;;;;;;;1.08;0.60;;;;;;;-145.69;39.65;52143.38;5072887;28;20207;-81
2023/10/29 02:23:34;;;;;;;3.63;0.60;;;;;;;-145.69;39.65;52127.53;5073390;28;20210;-81
2023/10/29 02:26:00;;;;;;;1.38;0.45;;;;;;;-145.69;39.15;52147.34;5073719;28;20279;-81
2023/10/29 02:28:27;;;;;;;1.15;0.57;;;;;;;-145.69;39.26;52127.53;5073497;28;20205;-81
2023/10/29 02:30:53;;;;;;;1.48;0.70;;;;;;;-145.69;39.36;52139.41;5073394;28;20553;-81
2023/10/29 02:33:19;;;;;;;0.57;0.50;;;;;;;-145.69;38.71;52143.38;5073335;28;20199;-81
2023/10/29 02:35:46;;;;;;;1.20;0.50;;;;;;;-145.69;38.82;52111.69;5073600;28;20214;-81
2023/10/29 02:38:14;;;;;;;3.42;1.00;;;;;;;-145.69;38.55;52107.72;5073953;28;20209;-80
2023/10/29 02:40:42;;;;;;;4.25;1.45;;;;;;;-145.69;38.35;52111.69;5074461;28;20242;-80
2023/10/29 02:43:10;;;;;;;0.55;0.55;;;;;;;-145.69;38.21;52113.66;5073310;28;20227;-81
2023/10/29 02:45:36;;;;;;;1.05;0.57;;;;;;;-145.69;38.68;52115.66;5073862;28;20235;-80
2023/10/29 02:48:03;;;;;;;1.85;0.70;;;;;;;-145.69;38.54;52119.63;5087506;28;20201;-80
2023/10/29 02:50:29;;;;;;;0.40;0.40;;;;;;;-145.69;38.59;52131.50;5093321;28;20202;-80
2023/10/29 02:52:56;;;;;;;1.77;0.68;;;;;;;-145.69;38.25;52115.66;5094863;28;20198;-80
2023/10/29 02:55:22;;;;;;;5.78;0.70;;;;;;;-145.69;38.70;52115.66;5094268;28;20538;-81
2023/10/29 02:57:50;;;;;;;1.00;0.50;;;;;;;-145.69;37.89;52109.72;5094890;28;20201;-80
2023/10/29 03:00:17;;;;;;;1.75;0.60;;;;;;;-145.69;38.09;52127.53;5094414;28;20661;-81
2023/10/29 03:02:44;;;;;;;0.68;0.68;;;;;;;-145.69;38.49;52139.41;5093727;28;20198;-80
2023/10/29 03:05:11;;;;;;;0.95;0.60;;;;;;;-145.69;38.22;52095.84;5093560;28;20312;-80
2023/10/29 03:07:38;;;;;;;0.82;0.63;;;;;;;-145.69;38.19;52123.56;5093415;28;20206;-80
2023/10/29 03:10:05;;;;;;;2.58;0.52;;;;;;;-145.69;38.45;52139.41;5057975;28;20202;-81
2023/10/29 03:12:32;;;;;;;0.60;0.60;;;;;;;-145.69;38.65;52135.47;5072898;28;20241;-81
2023/10/29 03:15:00;;;;;;;0.77;0.47;;;;;;;-145.69;38.43;52131.50;5073194;28;20208;-80
2023/10/29 03:17:27;;;;;;;0.98;0.60;;;;;;;-145.69;38.30;52078.03;5081083;28;20200;-81
2023/10/29 03:19:53;;;;;;;2.70;0.82;;;;;;;-145.69;38.53;52119.63;5093136;28;20201;-80
2023/10/29 03:22:19;;;;;;;0.60;0.55;;;;;;;-145.69;38.15;52109.72;5092910;28;20209;-81
2023/10/29 03:24:46;;;;;;;0.30;0.30;;;;;;;-145.69;38.46;52113.66;5092801;28;20225;-81
2023/10/29 03:27:12;;;;;;;3.55;0.73;;;;;;;-145.69;38.53;52123.56;5092620;28;20202;-80
2023/10/29 03:29:39;;;;;;;2.05;0.50;;;;;;;-145.69;39.11;52095.84;5093058;28;20206;-80
2023/10/29 03:32:07;;;;;;;1.00;0.63;;;;;;;-145.69;39.24;52089.91;5092555;28;20553;-81
2023/10/29 03:34:33;;;;;;;0.52;0.50;;;;;;;-145.69;39.13;52115.66;5096546;28;20201;-80
2023/10/29 03:37:00;;;;;;;0.85;0.80;;;;;;;-145.69;39.59;52103.78;5096735;28;20202;-80
2023/10/29 03:39:26;;;;;;;1.42;0.63;;;;;;;-145.69;39.32;52111.69;5096811;28;20206;-80
2023/10/29 03:41:53;;;;;;;2.25;0.73;;;;;;;-145.69;39.65;52083.97;5096650;28;20205;-80
2023/10/29 03:44:19;;;;;;;0.98;0.80;;;;;;;-145.69;39.78;52135.47;5079348;28;20229;-80
2023/10/29 03:46:50;;;;;;;6.72;0.73;;;;;;;-145.69;40.01;52129.50;5076325;28;20259;-81
2023/10/29 03:49:18;;;;;;;1.15;0.88;;;;;;;-145.69;39.84;52127.53;5076269;28;20206;-80
2023/10/29 03:51:46;;;;;;;1.73;0.65;;;;;;;-145.69;40.36;52139.41;5075839;28;20204;-80
2023/10/29 03:54:13;;;;;;;1.63;0.90;;;;;;;-145.69;39.67;52149.31;5075718;28;20235;-80
2023/10/29 03:56:40;;;;;;;1.23;0.80;;;;;;;-145.69;39.94;52119.63;5076243;28;20199;-81
2023/10/29 03:59:07;;;;;;;0.82;0.68;;;;;;;-145.69;39.52;52103.78;5076020;28;20206;-79
2023/10/29 04:01:33;;;;;;;1.63;0.70;;;;;;;-145.69;39.66;52145.34;5076558;28;20676;-80
2023/10/29 04:04:00;;;;;;;3.75;0.80;;;;;;;-145.69;39.21;52109.72;5076282;28;20206;-81
2023/10/29 04:06:27;;;;;;;2.70;0.50;;;;;;;-145.69;38.27;52127.53;5076429;28;20700;-81
2023/10/29 04:08:54;;;;;;;1.70;0.60;;;;;;;-145.69;38.51;52082.00;5076025;28;20202;-81
2023/10/29 04:11:20;;;;;;;1.45;0.52;;;;;;;-145.69;38.52;52115.66;5075794;28;20207;-80
2023/10/29 04:13:47;;;;;;;1.70;0.50;;;;;;;-145.69;37.55;52115.66;5076098;28;20198;-80
2023/10/29 04:16:14;;;;;;;4.05;0.60;;;;;;;-145.69;37.65;52125.56;5076220;28;20203;-82
2023/10/29 04:18:40;;;;;;;1.02;0.50;;;;;;;-145.69;37.39;52127.53;5075897;28;20281;-79
2023/10/29 04:21:07;;;;;;;1.95;0.90;;;;;;;-145.69;38.10;52143.38;5075866;28;20202;-81
2023/10/29 04:23:36;;;;;;;1.35;0.50;;;;;;;-145.69;36.79;52115.66;5075826;28;20203;-80
2023/10/29 04:26:03;;;;;;;0.70;0.63;;;;;;;-145.69;37.14;52113.66;5075817;28;20601;-81
2023/10/29 04:28:29;;;;;;;1.52;0.50;;;;;;;-145.69;37.04;52103.78;5075525;28;20195;-80
2023/10/29 04:30:56;;;;;;;1.30;0.65;;;;;;;-145.69;37.39;52107.72;5075354;28;20202;-81
2023/10/29 04:33:23;;;;;;;0.55;0.55;;;;;;;-145.69;37.70;52099.81;5075289;28;20233;-80
2023/10/29 04:35:49;;;;;;;1.35;0.63;;;;;;;-145.69;37.70;52111.69;5075144;28;20255;-80
2023/10/29 04:38:16;;;;;;;0.65;0.52;;;;;;;-145.69;37.60;52068.13;5075266;28;20198;-80
2023/10/29 04:40:44;;;;;;;4.07;0.50;;;;;;;-145.69;38.50;52087.94;5075600;28;20202;-80
2023/10/29 04:43:10;;;;;;;4.07;0.95;;;;;;;-145.69;38.25;52111.69;5074865;28;20632;-80
2023/10/29 04:45:37;;;;;;;0.50;0.40;;;;;;;-145.69;38.52;52078.03;5075030;28;20585;-80
2023/10/29 04:48:03;;;;;;;1.77;0.55;;;;;;;-145.69;38.32;52101.78;5075384;28;20203;-80
2023/10/29 04:50:31;;;;;;;1.27;0.70;;;;;;;-145.69;38.66;52099.81;5074961;28;20206;-81
2023/10/29 04:52:58;;;;;;;0.63;0.60;;;;;;;-145.69;38.80;52127.53;5075448;28;20199;-81
2023/10/29 04:55:24;;;;;;;1.67;0.73;;;;;;;-145.69;38.82;52105.75;5075006;28;20596;-81
2023/10/29 04:57:52;;;;;;;1.50;0.50;;;;;;;-145.69;39.26;52099.81;5079020;28;20206;-81
2023/10/29 05:00:18;;;;;;;1.50;0.52;;;;;;;-145.69;38.77;52099.81;5095110;28;20194;-81
2023/10/29 05:02:45;;;;;;;1.70;0.60;;;;;;;-145.69;39.02;52085.94;5092664;28;20202;-81
2023/10/29 05:05:11;;;;;;;2.88;0.60;;;;;;;-145.69;39.05;52101.78;5055265;28;20226;-81
2023/10/29 05:07:38;;;;;;;2.70;0.70;;;;;;;-145.69;39.05;52083.97;5055177;28;20206;-81
2023/10/29 05:10:05;;;;;;;0.90;0.50;;;;;;;-145.69;39.04;52072.09;5073990;28;20199;-81
2023/10/29 05:12:32;;;;;;;3.20;0.70;;;;;;;-145.69;39.14;52085.94;5075030;28;20229;-80
2023/10/29 05:14:59;;;;;;;1.02;0.73;;;;;;;-145.69;39.28;52099.81;5075164;28;20221;-80
2023/10/29 05:17:26;;;;;;;2.83;0.70;;;;;;;-145.69;39.51;52117.63;5074620;28;20212;-80
2023/10/29 05:19:54;;;;;;;0.70;0.70;;;;;;;-145.69;40.33;52103.78;5074748;28;20209;-82
2023/10/29 05:22:21;;;;;;;0.93;0.50;;;;;;;-145.69;39.96;52083.97;5074900;28;20289;-81
2023/10/29 05:24:47;;;;;;;0.90;0.52;;;;;;;-145.69;40.08;52087.94;5074532;28;20221;-80
2023/10/29 05:27:14;;;;;;;0.82;0.60;;;;;;;-145.69;39.92;52107.72;5074880;28;20662;-80
2023/10/29 05:29:40;;;;;;;4.35;0.60;;;;;;;-145.69;39.98;52076.03;5074356;28;20662;-80
2023/10/29 05:32:08;;;;;;;2.42;0.60;;;;;;;-145.69;39.53;52072.09;5076982;28;20194;-80
2023/10/29 05:34:35;;;;;;;1.75;0.70;;;;;;;-145.69;39.50;52076.03;5094489;28;20198;-81
2023/10/29 05:37:01;;;;;;;0.80;0.52;;;;;;;-145.69;39.59;52103.78;5094924;28;20206;-80
2023/10/29 05:39:28;;;;;;;3.70;0.77;;;;;;;-145.69;39.56;52131.50;5094788;28;20661;-80
2023/10/29 05:41:54;;;;;;;2.67;0.77;;;;;;;-145.69;39.37;52068.13;5091856;28;20206;-81
2023/10/29 05:44:20;;;;;;;7.00;0.98;;;;;;;-145.69;39.37;52099.81;5079718;28;20224;-81
2023/10/29 05:46:47;;;;;;;0.90;0.63;;;;;;;-145.69;39.46;52115.66;5094378;28;20634;-80
2023/10/29 05:49:15;;;;;;;1.52;0.80;;;;;;;-145.69;39.47;52093.88;5094186;28;20752;-80
2023/10/29 05:51:42;;;;;;;1.30;0.75;;;;;;;-145.69;39.32;52093.88;5093206;28;20205;-80
2023/10/29 05:54:09;;;;;;;0.80;0.65;;;;;;;-145.69;39.51;52105.75;5073127;28;20281;-80
2023/10/29 05:56:35;;;;;;;1.13;0.55;;;;;;;-145.69;39.24;52082.00;5073341;28;20203;-80
2023/10/29 05:59:02;;;;;;;3.63;0.80;;;;;;;-145.69;39.14;52087.94;5085616;28;20198;-80
2023/10/29 06:01:29;;;;;;;1.33;0.60;;;;;;;-145.69;39.17;52101.78;5077202;28;20198;-80
2023/10/29 06:03:56;;;;;;;1.60;0.70;;;;;;;-145.69;39.09;52113.66;5092377;28;20194;-80
2023/10/29 06:06:24;;;;;;;2.25;0.70;;;;;;;-145.69;39.25;52107.72;5093471;28;20696;-81
2023/10/29 06:08:50;;;;;;;1.20;0.70;;;;;;;-145.69;39.28;52072.09;5093787;28;20198;-81
2023/10/29 06:11:17;;;;;;;3.10;0.65;;;;;;;-145.69;39.22;52087.94;5093651;28;20680;-80
2023/10/29 06:13:44;;;;;;;0.60;0.60;;;;;;;-145.69;39.36;52087.94;5075996;28;20187;-79
2023/10/29 06:16:11;;;;;;;1.17;0.70;;;;;;;-145.69;39.32;52095.84;5086553;28;20289;-81
2023/10/29 06:18:37;;;;;;;6.95;0.77;;;;;;;-145.69;39.28;52072.09;5073417;28;20278;-80
2023/10/29 06:21:04;;;;;;;1.65;0.60;;;;;;;-145.69;38.64;52089.91;5073234;28;20210;-81
2023/10/29 06:23:32;;;;;;;2.15;0.73;;;;;;;-145.69;38.97;52083.97;5088076;28;20201;-81
2023/10/29 06:25:58;;;;;;;1.40;0.60;;;;;;;-145.69;38.73;52103.78;5093392;28;20257;-81
2023/10/29 06:28:25;;;;;;;1.40;0.70;;;;;;;-145.69;38.45;52083.97;5093700;28;20209;-81
2023/10/29 06:30:52;;;;;;;1.05;0.60;;;;;;;-145.69;38.03;52111.69;5093758;28;20202;-81
2023/10/29 06:33:18;;;;;;;1.92;0.60;;;;;;;-145.69;38.11;52064.16;5080197;28;20198;-81
2023/10/29 06:35:44;;;;;;;2.28;0.73;;;;;;;-145.69;38.17;52074.06;5074431;28;20220;-80
2023/10/29 06:38:11;;;;;;;1.30;0.80;;;;;;;-145.69;38.04;52078.03;5075228;28;20646;-81
2023/10/29 06:40:39;;;;;;;3.25;0.80;;;;;;;-145.69;37.99;52087.94;5075504;28;20232;-80
2023/10/29 06:43:05;;;;;;;1.42;0.75;;;;;;;-145.69;38.22;52093.88;5085537;28;20697;-81
2023/10/29 06:45:32;;;;;;;1.70;0.88;;;;;;;-145.69;38.25;52083.97;5096297;28;20249;-81
2023/10/29 06:47:58;;;;;;;1.88;0.80;;;;;;;-145.69;38.44;52078.03;5094763;28;20198;-81
2023/10/29 06:50:25;;;;;;;1.15;0.60;;;;;;;-145.69;38.29;52060.22;5096361;28;20205;-81
2023/10/29 06:52:51;;;;;;;1.35;0.82;;;;;;;-145.69;38.43;52083.97;5086364;28;20217;-81
2023/10/29 06:55:17;;;;;;;0.82;0.60;;;;;;;-145.69;38.35;52105.75;5074942;28;20206;-80
2023/10/29 06:57:45;;;;;;;1.13;0.80;;;;;;;-145.69;38.24;52117.63;5073953;28;20202;-81
2023/10/29 07:00:12;;;;;;;5.10;0.90;;;;;;;-145.69;38.64;52097.84;5074174;28;20202;-80
2023/10/29 07:02:39;;;;;;;1.60;0.60;;;;;;;-145.69;38.45;52080.00;5081671;28;20198;-81
2023/10/29 07:05:06;;;;;;;1.23;0.50;;;;;;;-145.69;38.71;52068.13;5095780;28;20206;-81
2023/10/29 07:07:34;;;;;;;1.10;0.55;;;;;;;-145.69;39.79;52085.94;5098337;28;20325;-81
2023/10/29 07:10:01;;;;;;;2.78;0.80;;;;;;;-145.69;38.86;52095.84;5098376;28;20202;-80
2023/10/29 07:12:27;;;;;;;2.08;0.82;;;;;;;-145.69;39.24;52070.09;5093801;28;20228;-81
2023/10/29 07:14:56;;;;;;;1.33;0.70;;;;;;;-145.69;39.27;52066.16;5077467;28;20205;-81
2023/10/29 07:17:22;;;;;;;1.73;0.77;;;;;;;-145.69;39.79;52044.38;5085022;28;20201;-81
2023/10/29 07:19:49;;;;;;;1.20;0.77;;;;;;;-145.69;39.65;52042.38;5098339;28;20198;-81
2023/10/29 07:22:16;;;;;;;2.08;0.70;;;;;;;-145.69;38.34;52080.00;5096511;28;20221;-81
2023/10/29 07:24:42;;;;;;;2.15;1.30;;;;;;;-145.69;38.33;52060.22;5078313;28;20264;-81
2023/10/29 07:27:09;;;;;;;2.58;0.80;;;;;;;-145.69;38.66;52060.22;5078680;28;20222;-81
2023/10/29 07:29:35;;;;;;;1.73;0.82;;;;;;;-145.69;38.37;52085.94;5079202;28;20229;-80
2023/10/29 07:32:03;;;;;;;1.00;0.80;;;;;;;-145.69;38.20;52036.44;5078022;28;20222;-81
2023/10/29 07:34:30;;;;;;;1.25;0.57;;;;;;;-145.69;37.70;52056.25;5078729;28;20511;-81
2023/10/29 07:36:56;;;;;;;1.95;0.70;;;;;;;-145.69;37.19;52070.09;5079042;28;20600;-81
2023/10/29 07:39:22;;;;;;;0.60;0.57;;;;;;;-145.69;36.91;52040.41;5078159;28;20604;-81
2023/10/29 07:41:49;;;;;;;1.17;0.90;;;;;;;-145.69;36.28;52072.09;5077639;28;20210;-81
2023/10/29 07:44:15;;;;;;;1.17;0.60;;;;;;;-145.69;36.68;52082.00;5078328;28;20234;-81
2023/10/29 07:46:42;;;;;;;0.90;0.70;;;;;;;-145.69;36.45;52054.25;5097039;28;20222;-82
2023/10/29 07:49:10;;;;;;;1.88;0.60;;;;;;;-145.69;36.30;52046.34;5097357;28;20202;-81
2023/10/29 07:51:36;;;;;;;1.08;0.50;;;;;;;-145.69;36.16;52068.13;5097515;28;20209;-81
2023/10/29 07:54:03;;;;;;;1.77;0.60;;;;;;;-145.69;36.27;52040.41;5079650;28;20191;-81
2023/10/29 07:56:29;;;;;;;6.82;0.77;;;;;;;-145.69;36.20;52034.47;5076648;28;20256;-81
2023/10/29 07:58:56;;;;;;;1.02;0.50;;;;;;;-145.69;35.89;52048.31;5078077;28;20534;-81
2023/10/29 08:01:22;;;;;;;0.63;0.50;;;;;;;-145.69;36.08;52036.44;5076360;28;20199;-81
2023/10/29 08:03:50;;;;;;;5.70;0.50;;;;;;;-145.69;35.86;52016.66;5081861;28;20206;-81
2023/10/29 08:06:18;;;;;;;1.70;0.50;;;;;;;-145.69;36.18;52000.81;5077223;28;20704;-81
2023/10/29 08:08:44;;;;;;;0.80;0.70;;;;;;;-145.69;35.99;52028.53;5076631;28;20199;-81
2023/10/29 08:11:18;;;;;;;1.85;0.57;;;;;;;-145.69;35.81;52048.31;5076152;28;20203;-81
2023/10/29 08:13:45;;;;;;;2.17;0.52;;;;;;;-145.69;35.97;52024.56;5089815;28;20224;-81
2023/10/29 08:16:12;;;;;;;1.25;0.63;;;;;;;-145.69;35.63;52032.47;5096049;28;20198;-81
2023/10/29 08:18:39;;;;;;;1.30;0.65;;;;;;;-145.69;35.42;52030.50;5078892;28;20450;-81
2023/10/29 08:21:05;;;;;;;1.58;0.57;;;;;;;-145.69;35.92;52002.78;5093842;28;20194;-81
2023/10/29 08:23:34;;;;;;;1.65;0.70;;;;;;;-145.69;35.85;52038.44;5075294;28;20206;-81
2023/10/29 08:26:01;;;;;;;0.55;0.40;;;;;;;-145.69;35.45;52048.31;5075554;28;20249;-81
2023/10/29 08:28:27;;;;;;;2.25;0.50;;;;;;;-145.69;36.08;52032.47;5075133;28;20209;-81
2023/10/29 08:30:54;;;;;;;1.17;0.60;;;;;;;-145.69;35.65;52028.53;5075453;28;20199;-81
2023/10/29 08:33:20;;;;;;;1.95;0.88;;;;;;;-145.69;35.14;52028.53;5075211;28;20195;-81
2023/10/29 08:35:48;;;;;;;0.60;0.50;;;;;;;-145.69;36.09;51996.84;5072611;28;20195;-81
2023/10/29 08:38:14;;;;;;;1.98;0.60;;;;;;;-145.69;35.93;52024.56;5075355;28;20198;-82
2023/10/29 08:40:42;;;;;;;1.35;0.70;;;;;;;-145.69;35.85;52044.38;5076228;28;20191;-82
2023/10/29 08:43:08;;;;;;;2.45;0.57;;;;;;;-145.69;35.67;51996.84;5076016;28;20249;-81
2023/10/29 08:45:35;;;;;;;1.27;0.60;;;;;;;-145.69;35.65;52004.75;5074885;28;20202;-81
2023/10/29 08:48:01;;;;;;;3.83;0.50;;;;;;;-145.69;35.36;51996.84;5074832;28;20234;-82
2023/10/29 08:50:29;;;;;;;0.50;0.50;;;;;;;-145.69;34.93;52004.75;5075872;28;20278;-81
2023/10/29 08:52:55;;;;;;;1.33;0.55;;;;;;;-145.69;35.17;52028.53;5092629;28;20683;-82
2023/10/29 08:55:22;;;;;;;2.55;0.70;;;;;;;-145.69;35.05;52008.72;5092893;28;20202;-82
2023/10/29 08:57:50;;;;;;;2.97;0.52;;;;;;;-145.69;35.17;51982.97;5076789;28;20203;-82
2023/10/29 09:00:18;;;;;;;3.20;0.68;;;;;;;-145.69;34.88;51973.06;5076423;28;20244;-82
2023/10/29 09:02:44;;;;;;;2.03;0.52;;;;;;;-145.69;35.03;52018.63;5094992;28;20194;-82
2023/10/29 09:05:11;;;;;;;1.33;0.60;;;;;;;-145.69;34.65;51949.31;5082742;28;20199;-82
2023/10/29 09:07:38;;;;;;;0.68;0.50;;;;;;;-145.69;35.06;51996.84;5071609;28;20636;-81
2023/10/29 09:10:05;;;;;;;0.90;0.50;;;;;;;-145.69;35.00;51981.00;5075164;28;20198;-82
2023/10/29 09:12:31;;;;;;;1.48;0.60;;;;;;;-145.69;35.03;51977.03;5076061;28;20215;-82
2023/10/29 09:14:59;;;;;;;3.10;0.50;;;;;;;-145.69;34.56;51981.00;5074698;28;20653;-82
2023/10/29 09:17:25;;;;;;;2.33;0.50;;;;;;;-145.69;34.70;51984.97;5073934;28;20277;-82
2023/10/29 09:19:52;;;;;;;1.05;0.50;;;;;;;-145.69;34.81;51963.19;5074728;28;20203;-81
2023/10/29 09:22:18;;;;;;;1.33;0.50;;;;;;;-145.69;34.00;51977.03;5075162;28;20199;-81
2023/10/29 09:24:45;;;;;;;1.33;0.70;;;;;;;-145.69;34.43;51963.19;5074360;28;20202;-82
2023/10/29 09:27:11;;;;;;;2.33;0.50;;;;;;;-145.69;34.80;51971.09;5074317;28;20240;-82
2023/10/29 09:29:40;;;;;;;0.90;0.52;;;;;;;-145.69;34.38;51996.84;5080059;28;20680;-82
2023/10/29 09:32:08;;;;;;;1.70;0.40;;;;;;;-145.69;34.44;51979.03;5095199;28;20202;-82
2023/10/29 09:34:34;;;;;;;3.40;0.50;;;;;;;-145.69;34.90;51977.03;5088114;28;20195;-82
2023/10/29 09:37:01;;;;;;;4.65;0.60;;;;;;;-145.69;34.80;51979.03;5074105;28;20705;-82
2023/10/29 09:39:27;;;;;;;0.52;0.50;;;;;;;-145.69;34.54;51988.91;5073904;28;20206;-82
2023/10/29 09:41:55;;;;;;;0.73;0.40;;;;;;;-145.69;35.13;52012.69;5074345;28;20641;-81
2023/10/29 09:44:23;;;;;;;1.63;0.60;;;;;;;-145.69;34.16;51992.88;5073687;28;20230;-82
2023/10/29 09:46:59;;;;;;;0.93;0.57;;;;;;;-145.69;33.71;51994.88;5073922;28;20264;-81
2023/10/29 09:49:27;;;;;;;1.15;0.57;;;;;;;-145.69;34.82;51969.13;5073981;28;20191;-82
2023/10/29 09:51:53;;;;;;;1.02;0.60;;;;;;;-145.69;35.09;51959.22;5073575;28;20194;-83
2023/10/29 09:54:20;;;;;;;0.52;0.35;;;;;;;-145.69;34.06;52000.81;5073686;28;20191;-82
2023/10/29 09:56:47;;;;;;;1.10;0.50;;;;;;;-145.69;34.43;51959.22;5073216;28;20205;-82
2023/10/29 09:59:16;;;;;;;1.38;0.65;;;;;;;-145.69;34.05;51996.84;5073826;28;20626;-82
2023/10/29 10:01:42;;;;;;;1.42;0.50;;;;;;;-145.69;34.57;51992.88;5073713;28;20281;-82
2023/10/29 10:04:09;;;;;;;1.08;0.50;;;;;;;-145.69;34.29;52006.75;5073630;28;20233;-82
2023/10/29 10:06:38;;;;;;;1.73;0.90;;;;;;;-145.69;34.08;51933.47;5073163;28;20819;-82
2023/10/29 10:09:05;;;;;;;5.32;0.90;;;;;;;-145.69;34.31;51977.03;5073869;28;20207;-82
2023/10/29 10:11:32;;;;;;;1.88;0.60;;;;;;;-145.69;34.52;51957.25;5073661;28;20234;-83
2023/10/29 10:13:58;;;;;;;1.60;0.55;;;;;;;-145.69;33.78;51957.25;5073437;28;20610;-82
2023/10/29 10:16:25;;;;;;;1.25;0.60;;;;;;;-145.69;33.24;51959.22;5073836;28;20206;-82
2023/10/29 10:18:54;;;;;;;2.15;0.68;;;;;;;-145.69;33.66;51949.31;5073040;28;20593;-81
2023/10/29 10:21:27;;;;;;;1.55;0.63;;;;;;;-145.69;33.72;51955.25;5077074;28;20190;-82
2023/10/29 10:23:56;;;;;;;2.03;0.60;;;;;;;-145.69;33.54;51949.31;5094496;28;20679;-82
2023/10/29 10:26:29;;;;;;;1.10;0.77;;;;;;;-145.69;33.25;51957.25;5074288;28;20233;-82
2023/10/29 10:28:57;;;;;;;2.17;0.43;;;;;;;-145.69;33.31;51949.31;5072889;28;20238;-83
2023/10/29 10:31:25;;;;;;;0.50;0.50;;;;;;;-145.69;33.36;51927.53;5072554;28;20206;-83
2023/10/29 10:33:52;;;;;;;0.88;0.40;;;;;;;-145.69;32.51;51941.41;5073229;28;20298;-84
2023/10/29 10:36:32;;;;;;;2.15;0.77;;;;;;;-145.69;32.87;51961.19;5072820;28;20195;-82
2023/10/29 10:39:00;;;;;;;2.90;0.60;;;;;;;-145.69;32.86;51947.34;5073086;28;20596;-83
2023/10/29 10:41:38;;;;;;;2.05;0.82;;;;;;;-145.69;32.03;51907.72;5072525;28;20199;-84
2023/10/29 10:44:10;;;;;;;1.15;0.60;;;;;;;-145.69;32.59;51937.44;5072839;28;20566;-83
2023/10/29 10:46:42;;;;;;;0.80;0.52;;;;;;;-145.69;32.58;51907.72;5072539;28;20241;-82
2023/10/29 10:49:14;;;;;;;2.45;0.80;;;;;;;-145.69;31.99;51941.41;5072799;28;20211;-83
2023/10/29 10:51:41;;;;;;;1.10;0.50;;;;;;;-145.69;32.46;51947.34;5072974;28;20567;-83
2023/10/29 10:54:09;;;;;;;2.03;0.77;;;;;;;-145.69;31.86;51939.41;5083852;28;20198;-83
2023/10/29 10:56:37;;;;;;;2.40;0.68;;;;;;;-145.69;32.17;51907.72;5080207;28;20190;-82
2023/10/29 10:59:07;;;;;;;2.78;0.90;;;;;;;-145.69;32.71;51935.47;5094654;28;20198;-82
2023/10/29 11:01:35;;;;;;;1.27;0.60;;;;;;;-145.69;31.99;51945.34;5075068;28;20191;-82
2023/10/29 11:04:03;;;;;;;2.08;0.50;;;;;;;-145.69;32.02;51933.47;5070872;28;20250;-82
2023/10/29 11:06:33;;;;;;;2.15;0.50;;;;;;;-145.69;32.61;51947.34;5072650;28;20198;-82
2023/10/29 11:09:02;;;;;;;3.58;0.70;;;;;;;-145.69;32.03;51933.47;5073875;28;20207;-82
2023/10/29 11:11:35;;;;;;;5.00;0.70;;;;;;;-145.69;31.94;51941.41;5074490;28;20203;-81
2023/10/29 11:14:09;;;;;;;1.35;0.60;;;;;;;-145.69;32.20;51937.44;5075296;28;20202;-82
2023/10/29 11:16:45;;;;;;;0.60;0.50;;;;;;;-145.69;30.31;51917.63;5073685;28;20214;-81